Tesuque, New Mexico
Current Conditions -  °F | °C
As of 5:53 PM on Friday 28 Nov 2014 (Local Time) from KSAF Reporting Station
Clear Clear  
Wind Chill: 45°   Ceiling: Unl
Heat Index: 47°   Visibility: 10mi
Dew Point: 15°   Wind: 5mph
Humidity: 28%   Direction: 320°NW
Pressure: 30.11"   Gusts: NA
Location:  35.76°N, 105.94°W
Report Text: KSAF 290053Z 32004KT 10SM CLR 08/M09 A3011 RMK AO2 SLP177 T00831094
Loading
Personal Weather Stations






























Interactive Weather Map New forecast layout! Learn more

10-Day Weather Forecast

Advertisements
Track Severe Weather on mobile